Time;durP1;ratioP1;P1;durP2;ratioP2;P2;SDS_P1;SDS_P2;PMS_P1;PMS_P2;Temp;Humidity;BMP_temperature;BMP_pressure;BME280_temperature;BME280_humidity;BME280_pressure;Samples;Min_cycle;Max_cycle;Signal;HPM_P1;HPM_P2
2022/09/19 00:01:10;;;;;;;1.97;1.63;;;17.90;64.30;19.00;100811.00;;;;5069440;28;20181;-41
2022/09/19 00:03:38;;;;;;;2.27;1.70;;;17.90;64.20;19.00;100816.00;;;;5067600;28;20634;-43
2022/09/19 00:06:05;;;;;;;2.20;1.50;;;17.90;64.20;19.00;100811.00;;;;5069425;28;20185;-44
2022/09/19 00:08:31;;;;;;;1.50;1.40;;;17.90;64.20;18.90;100813.00;;;;5068624;28;20189;-42
2022/09/19 00:11:00;;;;;;;1.70;1.60;;;17.90;64.20;18.90;100818.00;;;;5068907;28;20245;-43
2022/09/19 00:13:25;;;;;;;2.20;1.60;;;17.90;64.30;18.90;100813.00;;;;5051579;28;20739;-43
2022/09/19 00:15:51;;;;;;;1.60;1.50;;;17.90;64.20;18.90;100810.00;;;;5068720;28;20208;-46
2022/09/19 00:18:17;;;;;;;1.77;1.67;;;17.80;64.10;18.90;100810.00;;;;5068425;28;20180;-42
2022/09/19 00:20:49;;;;;;;1.67;1.57;;;17.80;64.10;18.90;100808.00;;;;5084349;28;20179;-43
2022/09/19 00:26:03;;;;;;;1.70;1.60;;;17.80;64.20;18.90;100808.00;;;;5068836;28;20317;-42
2022/09/19 00:28:29;;;;;;;2.33;1.80;;;17.80;64.30;18.90;100808.00;;;;5068908;28;20758;-43
2022/09/19 00:30:55;;;;;;;2.23;1.73;;;17.80;64.30;18.90;100811.00;;;;5069042;28;20672;-42
2022/09/19 00:33:22;;;;;;;1.60;1.50;;;17.70;64.20;18.90;100808.00;;;;5067448;28;20576;-42
2022/09/19 00:35:54;;;;;;;1.60;1.50;;;17.70;64.20;18.90;100800.00;;;;5068801;28;20184;-42
2022/09/19 00:38:21;;;;;;;1.87;1.47;;;17.70;65.00;18.90;100804.00;;;;5069031;28;20242;-44
2022/09/19 00:40:48;;;;;;;1.90;1.50;;;17.70;64.20;18.80;100805.00;;;;5067880;28;20589;-43
2022/09/19 00:43:14;;;;;;;1.77;1.60;;;17.70;64.20;18.80;100808.00;;;;5068586;28;20211;-43
2022/09/19 00:45:40;;;;;;;1.50;1.40;;;17.70;64.20;18.80;100812.00;;;;5067085;28;20176;-43
2022/09/19 00:48:06;;;;;;;1.70;1.60;;;17.70;64.20;18.80;100816.00;;;;5068598;28;20252;-43
2022/09/19 00:50:31;;;;;;;1.77;1.67;;;17.70;64.20;18.80;100819.00;;;;5068728;28;20195;-43
2022/09/19 00:53:09;;;;;;;1.57;1.30;;;17.70;64.20;18.80;100818.00;;;;5050834;28;20194;-42
2022/09/19 00:55:36;;;;;;;1.83;1.50;;;17.70;64.20;18.80;100813.00;;;;5068045;28;20158;-42
2022/09/19 00:58:10;;;;;;;1.63;1.47;;;17.60;64.30;18.80;100823.00;;;;5067000;28;20178;-42
2022/09/19 01:00:37;;;;;;;1.43;1.33;;;17.60;64.30;18.80;100817.00;;;;5066870;28;20163;-43
2022/09/19 01:03:06;;;;;;;1.53;1.43;;;17.60;64.30;18.80;100814.00;;;;5068302;28;20586;-42
2022/09/19 01:06:21;;;;;;;1.50;1.40;;;17.60;64.40;18.80;100816.00;;;;5050799;28;20168;-43
2022/09/19 01:09:24;;;;;;;1.70;1.60;;;17.60;64.30;18.70;100816.00;;;;5067810;28;20300;-44
2022/09/19 01:12:48;;;;;;;1.57;1.47;;;17.60;64.30;18.70;100826.00;;;;5058554;28;20692;-43
2022/09/19 01:15:51;;;;;;;1.67;1.57;;;17.60;64.40;18.70;100828.00;;;;5068414;28;20176;-42
2022/09/19 01:18:17;;;;;;;1.67;1.57;;;17.60;64.40;18.60;100827.00;;;;5068332;28;20157;-44
2022/09/19 01:24:49;;;;;;;1.50;1.40;;;17.60;64.70;18.60;100825.00;;;;5053780;28;20177;-43
2022/09/19 01:27:22;;;;;;;1.50;1.40;;;17.60;64.80;18.40;100784.00;;;;5065080;28;20202;-43
2022/09/19 01:30:01;;;;;;;1.60;1.50;;;17.60;64.80;18.60;100755.00;;;;5081906;28;20269;-41
2022/09/19 01:32:33;;;;;;;1.50;1.40;;;17.50;64.80;18.60;100836.00;;;;5069543;28;20185;-42
2022/09/19 01:35:02;;;;;;;1.43;1.33;;;17.50;64.80;18.60;100798.00;;;;5058838;28;20161;-43
2022/09/19 01:37:32;;;;;;;1.97;1.63;;;17.50;64.80;18.60;100836.00;;;;5050973;28;20196;-42
2022/09/19 01:40:00;;;;;;;1.30;1.20;;;17.50;64.80;18.60;100844.00;;;;5050852;28;20174;-42
2022/09/19 01:42:26;;;;;;;1.80;1.60;;;17.50;64.90;18.60;100843.00;;;;5066975;28;20197;-43
2022/09/19 01:44:53;;;;;;;1.90;1.40;;;17.50;64.80;18.60;100851.00;;;;5068095;28;20168;-44
2022/09/19 01:48:05;;;;;;;1.80;1.70;;;17.40;64.70;18.60;100858.00;;;;5050241;28;20171;-43
2022/09/19 01:51:03;;;;;;;1.60;1.40;;;17.40;64.80;18.50;100854.00;;;;5030373;28;20187;-43
2022/09/19 01:54:06;;;;;;;1.50;1.40;;;17.50;64.90;18.50;100860.00;;;;5053474;28;20203;-44
2022/09/19 01:56:54;;;;;;;1.33;1.27;;;17.40;64.90;18.50;100859.00;;;;5067840;28;20578;-42
2022/09/19 01:59:39;;;;;;;2.63;1.27;;;17.50;65.00;18.50;100867.00;;;;5068145;28;20245;-42
2022/09/19 02:02:28;;;;;;;1.30;1.20;;;17.40;64.80;18.50;100859.00;;;;5069114;28;21082;-43
2022/09/19 02:05:08;;;;;;;1.30;1.27;;;17.50;64.90;18.50;100862.00;;;;5070295;28;20207;-43
2022/09/19 02:07:51;;;;;;;1.67;1.47;;;17.40;64.80;18.50;100876.00;;;;5071266;28;20171;-42
2022/09/19 02:10:29;;;;;;;1.30;1.20;;;17.40;64.80;18.50;100869.00;;;;5071443;28;20270;-43
2022/09/19 02:12:56;;;;;;;1.40;1.30;;;17.40;64.80;18.50;100874.00;;;;5054572;28;20284;-43
2022/09/19 02:15:28;;;;;;;1.50;1.40;;;17.40;64.80;18.50;100859.00;;;;5053680;28;20172;-42
2022/09/19 02:18:04;;;;;;;1.10;1.10;;;17.40;64.80;18.50;100790.00;;;;5054068;28;20279;-43
2022/09/19 02:20:32;;;;;;;1.10;1.10;;;17.40;64.90;18.50;100803.00;;;;5054524;28;20241;-43
2022/09/19 02:23:09;;;;;;;1.53;1.40;;;17.40;65.00;18.40;100870.00;;;;5053655;28;20186;-43
2022/09/19 02:25:35;;;;;;;1.67;1.57;;;17.40;64.90;18.40;100869.00;;;;5054930;28;20162;-43
2022/09/19 02:28:06;;;;;;;1.50;1.40;;;17.30;64.90;18.40;100874.00;;;;5069927;28;20551;-42
2022/09/19 02:30:32;;;;;;;1.30;1.30;;;17.30;64.90;18.40;100797.00;;;;5038470;28;20672;-43
2022/09/19 02:32:58;;;;;;;1.70;1.40;;;17.30;64.90;18.40;100873.00;;;;5070208;28;20196;-42
2022/09/19 02:35:36;;;;;;;1.50;1.40;;;17.30;64.90;18.40;100880.00;;;;5069528;28;20315;-43
2022/09/19 02:38:21;;;;;;;1.77;1.47;;;17.30;65.00;18.40;100870.00;;;;5069520;28;20234;-43
2022/09/19 02:40:55;;;;;;;1.37;1.27;;;17.30;64.90;18.40;100884.00;;;;5054489;28;20170;-42
2022/09/19 02:43:46;;;;;;;1.77;1.50;;;17.30;64.90;18.40;100882.00;;;;5054137;28;20386;-43
2022/09/19 02:46:40;;;;;;;1.97;1.50;;;17.30;65.00;18.40;100883.00;;;;5069723;28;20159;-42
2022/09/19 02:49:10;;;;;;;1.30;1.10;;;17.30;65.00;18.40;100881.00;;;;5069070;28;20193;-43
2022/09/19 02:51:40;;;;;;;1.70;1.53;;;17.30;65.00;18.40;100894.00;;;;5070142;28;20234;-42
2022/09/19 02:54:18;;;;;;;1.40;1.30;;;17.30;64.90;18.40;100885.00;;;;5053045;28;20158;-42
2022/09/19 02:56:44;;;;;;;1.20;1.20;;;17.30;65.00;18.30;100891.00;;;;5052771;28;20193;-42
2022/09/19 02:59:21;;;;;;;2.00;1.40;;;17.20;64.80;18.40;100817.00;;;;5052589;28;20170;-44
2022/09/19 03:01:54;;;;;;;1.30;1.20;;;17.20;64.80;18.30;100892.00;;;;5043494;28;20201;-43
2022/09/19 03:04:25;;;;;;;1.60;1.47;;;17.20;65.50;18.30;100886.00;;;;5055337;28;20232;-43
2022/09/19 03:07:17;;;;;;;1.50;1.40;;;17.20;65.60;18.30;100890.00;;;;5048474;28;20152;-43
2022/09/19 03:09:58;;;;;;;1.40;1.30;;;17.20;64.70;18.30;100820.00;;;;5048486;28;20179;-46
2022/09/19 03:12:36;;;;;;;1.50;1.40;;;17.20;64.80;18.30;100888.00;;;;5048403;28;20794;-43
2022/09/19 03:15:05;;;;;;;1.50;1.40;;;17.20;64.70;18.30;100886.00;;;;5049894;28;20156;-43
2022/09/19 03:17:51;;;;;;;1.27;1.20;;;17.20;64.70;18.30;100897.00;;;;5064413;28;20683;-43
2022/09/19 03:20:17;;;;;;;1.47;1.37;;;17.20;64.70;18.30;100896.00;;;;5031335;28;20682;-43
2022/09/19 03:22:45;;;;;;;1.33;1.23;;;17.20;64.80;18.30;100899.00;;;;5048335;28;20198;-42
2022/09/19 03:25:11;;;;;;;1.20;1.20;;;17.20;64.70;18.30;100900.00;;;;5048456;28;20166;-43
2022/09/19 03:27:37;;;;;;;1.47;1.37;;;17.20;64.80;18.30;100896.00;;;;5047909;28;20283;-42
2022/09/19 03:30:11;;;;;;;2.10;1.40;;;17.20;64.90;18.30;100886.00;;;;5048992;28;20233;-42
2022/09/19 03:32:37;;;;;;;5.53;1.70;;;17.20;65.00;18.30;100897.00;;;;5048268;28;20200;-42
2022/09/19 03:35:04;;;;;;;4.03;1.53;;;17.20;65.60;18.30;100895.00;;;;5048376;28;20186;-42
2022/09/19 03:37:32;;;;;;;1.30;1.20;;;17.20;65.20;18.30;100899.00;;;;5048645;28;20205;-42
2022/09/19 03:39:59;;;;;;;4.93;1.47;;;17.20;65.00;18.30;100912.00;;;;5048596;28;20189;-43
2022/09/19 03:42:26;;;;;;;1.70;1.50;;;17.20;65.00;18.30;100907.00;;;;5047964;28;20192;-42
2022/09/19 03:44:52;;;;;;;2.40;1.50;;;17.20;65.30;18.30;100900.00;;;;5048061;28;20177;-42
2022/09/19 03:47:20;;;;;;;5.00;1.40;;;17.10;65.30;18.20;100897.00;;;;5049361;28;20172;-42
2022/09/19 03:49:46;;;;;;;2.20;1.63;;;17.10;65.50;18.20;100900.00;;;;5048721;28;20180;-44
2022/09/19 03:52:12;;;;;;;3.57;1.40;;;17.20;65.80;18.20;100902.00;;;;5051019;28;20188;-42
2022/09/19 03:54:38;;;;;;;2.63;1.80;;;17.20;65.70;18.20;100910.00;;;;5050394;28;20162;-42
2022/09/19 03:57:04;;;;;;;1.67;1.57;;;17.30;65.60;18.20;100917.00;;;;5051123;28;20190;-42
2022/09/19 03:59:30;;;;;;;3.20;1.67;;;17.40;65.60;18.20;100911.00;;;;5048163;28;20541;-43
2022/09/19 04:01:58;;;;;;;3.43;1.57;;;17.50;65.40;18.20;100911.00;;;;5048177;28;20191;-43
2022/09/19 04:04:24;;;;;;;2.97;1.70;;;17.50;65.20;18.30;100909.00;;;;5049425;28;20167;-43
2022/09/19 04:06:49;;;;;;;3.03;1.20;;;17.60;65.20;18.30;100913.00;;;;5047980;28;20552;-42
2022/09/19 04:09:15;;;;;;;2.60;1.40;;;17.60;66.00;18.30;100913.00;;;;5049110;28;20186;-42
2022/09/19 04:11:41;;;;;;;2.27;1.40;;;17.60;65.00;18.30;100911.00;;;;5049690;28;20190;-43
2022/09/19 04:14:07;;;;;;;2.83;1.60;;;17.60;65.10;18.30;100910.00;;;;5049094;28;20198;-42
2022/09/19 04:16:33;;;;;;;3.33;1.70;;;17.60;65.10;18.30;100909.00;;;;5048518;28;20198;-42
2022/09/19 04:18:59;;;;;;;4.83;1.40;;;17.60;65.00;18.40;100915.00;;;;5049198;28;20166;-44
2022/09/19 04:21:25;;;;;;;5.67;1.50;;;17.60;65.00;18.40;100921.00;;;;5049248;28;20169;-42
2022/09/19 04:23:51;;;;;;;2.63;1.57;;;17.60;65.00;18.40;100924.00;;;;5031091;28;20179;-44
2022/09/19 04:26:17;;;;;;;3.40;1.67;;;17.60;65.00;18.40;100930.00;;;;5047724;28;20181;-42
2022/09/19 04:28:43;;;;;;;3.93;1.67;;;17.60;65.20;18.40;100926.00;;;;5047345;28;20174;-42
2022/09/19 04:31:12;;;;;;;7.27;1.93;;;17.60;65.40;18.40;100926.00;;;;5048687;28;20196;-43
2022/09/19 04:33:37;;;;;;;11.07;2.33;;;17.70;65.70;18.40;100939.00;;;;5049029;28;20193;-41
2022/09/19 04:36:05;;;;;;;13.27;2.40;;;17.60;65.70;18.40;100938.00;;;;5049203;28;20201;-42
2022/09/19 04:38:32;;;;;;;8.57;2.23;;;17.60;66.00;18.40;100925.00;;;;5047448;28;20165;-43
2022/09/19 04:40:58;;;;;;;10.27;2.53;;;17.60;65.90;18.40;100930.00;;;;5047727;28;20368;-42
2022/09/19 04:43:26;;;;;;;9.33;2.33;;;17.60;65.70;18.40;100938.00;;;;5047704;28;20182;-42
2022/09/19 04:45:55;;;;;;;8.93;2.27;;;17.60;65.70;18.40;100933.00;;;;5047527;28;20245;-44
2022/09/19 04:48:22;;;;;;;8.00;2.40;;;17.60;65.80;18.40;100944.00;;;;5047320;28;20304;-43
2022/09/19 04:50:50;;;;;;;8.13;2.40;;;17.60;65.80;18.40;100939.00;;;;5046462;28;20180;-42
2022/09/19 04:53:18;;;;;;;7.00;2.30;;;17.50;65.80;18.40;100951.00;;;;5047192;28;20193;-43
2022/09/19 04:55:50;;;;;;;8.57;2.53;;;17.50;65.80;18.40;100946.00;;;;5046285;28;20675;-44
2022/09/19 04:58:16;;;;;;;8.60;2.80;;;17.50;65.80;18.40;100950.00;;;;5056767;28;20252;-43
2022/09/19 05:00:45;;;;;;;6.90;2.40;;;17.50;65.70;18.40;100953.00;;;;5066604;28;20169;-43
2022/09/19 05:03:14;;;;;;;9.60;2.67;;;17.40;65.70;18.40;100962.00;;;;5061749;28;20184;-41
2022/09/19 05:05:50;;;;;;;5.57;2.40;;;17.40;65.80;18.40;100951.00;;;;5048791;28;20201;-42
2022/09/19 05:08:27;;;;;;;7.40;2.23;;;17.40;65.70;18.30;100962.00;;;;5063431;28;20176;-43
2022/09/19 05:11:01;;;;;;;7.67;2.30;;;17.40;65.70;18.30;100970.00;;;;5047115;28;20174;-43
2022/09/19 05:13:29;;;;;;;7.30;2.50;;;17.40;65.80;18.30;100967.00;;;;5047144;28;20195;-43
2022/09/19 05:15:55;;;;;;;5.43;2.47;;;17.40;65.70;18.30;100972.00;;;;5047100;28;20655;-43
2022/09/19 05:18:21;;;;;;;4.57;2.43;;;17.40;65.50;18.30;100971.00;;;;5047331;28;20178;-43
2022/09/19 05:20:48;;;;;;;5.90;2.20;;;17.40;65.60;18.30;100973.00;;;;5047474;28;20172;-43
2022/09/19 05:23:14;;;;;;;4.43;2.10;;;17.50;65.80;18.30;100968.00;;;;5048956;28;20762;-43
2022/09/19 05:25:40;;;;;;;4.30;2.27;;;17.40;65.60;18.30;100981.00;;;;5048703;28;20256;-43
2022/09/19 05:28:06;;;;;;;4.20;2.10;;;17.40;65.70;18.30;100975.00;;;;5048053;28;20554;-43
2022/09/19 05:30:33;;;;;;;6.03;2.20;;;17.40;65.70;18.30;100977.00;;;;5047968;28;20183;-43
2022/09/19 05:32:59;;;;;;;5.47;2.23;;;17.40;65.70;18.30;100976.00;;;;5048226;28;20298;-43
2022/09/19 05:35:26;;;;;;;4.83;2.23;;;17.40;65.70;18.30;100984.00;;;;5046893;28;20181;-43
2022/09/19 05:37:52;;;;;;;6.43;2.37;;;17.40;65.80;18.30;100984.00;;;;5050687;28;20197;-43
2022/09/19 05:40:18;;;;;;;4.47;2.20;;;17.30;65.80;18.30;100986.00;;;;5050382;28;20544;-43
2022/09/19 05:42:46;;;;;;;4.23;2.13;;;17.40;65.80;18.30;100989.00;;;;5051222;28;20215;-42
2022/09/19 05:45:12;;;;;;;4.17;2.00;;;17.40;65.80;18.00;100987.00;;;;5050828;28;20236;-43
2022/09/19 05:47:41;;;;;;;3.20;2.00;;;17.30;65.80;18.30;100985.00;;;;5051848;28;20176;-42
2022/09/19 05:50:08;;;;;;;5.93;2.20;;;17.30;65.70;18.30;100991.00;;;;5050237;28;20187;-43
2022/09/19 05:55:24;;;;;;;3.37;2.23;;;17.30;65.90;18.20;101000.00;;;;5052304;28;20229;-43
2022/09/19 05:57:55;;;;;;;3.47;2.10;;;17.30;65.90;18.20;101008.00;;;;5050631;28;20291;-42
2022/09/19 06:00:23;;;;;;;3.07;2.10;;;17.30;65.80;18.20;101005.00;;;;5050572;28;20168;-45
2022/09/19 06:03:02;;;;;;;4.27;1.90;;;17.30;65.90;18.20;101011.00;;;;5050180;28;20183;-43
2022/09/19 06:05:32;;;;;;;4.40;2.17;;;17.30;66.00;18.20;101021.00;;;;5051169;28;20176;-41
2022/09/19 06:07:58;;;;;;;2.80;1.63;;;17.30;65.90;18.20;101021.00;;;;5050424;28;20185;-44
2022/09/19 06:10:25;;;;;;;8.00;2.30;;;17.30;65.80;18.20;101027.00;;;;5051676;28;20535;-41
2022/09/19 06:12:52;;;;;;;4.67;1.83;;;17.30;65.80;18.20;101022.00;;;;5049476;28;20870;-42
2022/09/19 06:15:18;;;;;;;4.93;2.27;;;17.40;65.90;18.30;101028.00;;;;5051972;28;20182;-43
2022/09/19 06:17:48;;;;;;;11.13;2.57;;;17.40;66.60;18.30;101032.00;;;;5006513;28;20736;-48
2022/09/19 06:20:14;;;;;;;10.37;2.50;;;17.50;67.70;18.20;101028.00;;;;5072904;28;20180;-42
2022/09/19 06:22:41;;;;;;;12.83;2.87;;;17.60;69.00;18.30;101026.00;;;;5072580;28;20194;-44
2022/09/19 06:25:07;;;;;;;12.50;2.80;;;17.60;69.70;18.40;101037.00;;;;5069656;28;20217;-42
2022/09/19 06:27:33;;;;;;;14.10;3.13;;;17.70;69.80;18.40;101049.00;;;;5070737;28;20264;-42
2022/09/19 06:29:59;;;;;;;14.33;2.70;;;17.80;69.90;18.50;101037.00;;;;5070651;28;20178;-42
2022/09/19 06:32:24;;;;;;;17.43;3.10;;;17.90;69.80;18.50;101049.00;;;;5070541;28;20193;-43
2022/09/19 06:34:50;;;;;;;9.83;2.60;;;18.00;69.40;18.60;101050.00;;;;5069297;28;20207;-43
2022/09/19 06:37:16;;;;;;;11.13;3.00;;;18.10;69.20;18.70;101061.00;;;;5070109;28;20235;-43
2022/09/19 06:39:42;;;;;;;14.83;3.00;;;18.30;69.00;18.70;101055.00;;;;5069579;28;20176;-43
2022/09/19 06:42:08;;;;;;;9.43;2.70;;;18.40;68.70;18.80;101059.00;;;;5070863;28;20192;-43
2022/09/19 06:44:33;;;;;;;13.47;2.70;;;18.60;68.20;18.90;101065.00;;;;5070311;28;20176;-43
2022/09/19 06:46:59;;;;;;;9.17;2.70;;;18.70;67.90;19.00;101059.00;;;;5069232;28;20201;-43
2022/09/19 06:49:27;;;;;;;3.67;2.17;;;18.80;67.40;19.10;101063.00;;;;5070916;28;20179;-43
2022/09/19 06:51:54;;;;;;;8.50;2.57;;;19.00;67.10;19.20;101063.00;;;;5070902;28;20236;-42
2022/09/19 06:54:21;;;;;;;16.50;2.47;;;19.10;66.70;19.30;101070.00;;;;5069991;28;20177;-43
2022/09/19 06:56:48;;;;;;;5.97;2.50;;;19.30;66.50;19.40;101068.00;;;;5053002;28;20192;-42
2022/09/19 06:59:13;;;;;;;7.67;2.30;;;19.30;66.20;19.50;101072.00;;;;5070699;28;20545;-43
2022/09/19 07:01:39;;;;;;;8.27;2.70;;;19.50;66.10;19.60;101075.00;;;;5069455;28;20205;-42
2022/09/19 07:04:05;;;;;;;4.60;2.37;;;19.50;66.20;19.60;101016.00;;;;5068680;28;20173;-42
2022/09/19 07:06:34;;;;;;;5.53;2.20;;;19.50;66.00;19.70;101083.00;;;;5071040;28;20185;-43
2022/09/19 07:09:04;;;;;;;4.27;2.00;;;19.50;66.00;19.70;101084.00;;;;5071669;28;20234;-42
2022/09/19 07:11:30;;;;;;;8.00;2.23;;;19.50;66.00;19.80;101077.00;;;;5072047;28;20207;-43
2022/09/19 07:13:56;;;;;;;4.47;2.20;;;19.50;65.90;19.80;101093.00;;;;5071301;28;20201;-43
2022/09/19 07:16:22;;;;;;;4.10;2.03;;;19.60;65.90;19.90;101085.00;;;;5070007;28;20224;-43
2022/09/19 07:18:48;;;;;;;5.83;2.27;;;19.60;65.80;19.90;101086.00;;;;5070091;28;20193;-43
2022/09/19 07:21:13;;;;;;;3.97;2.20;;;19.60;65.80;19.90;101100.00;;;;5070911;28;20208;-43
2022/09/19 07:23:39;;;;;;;6.10;2.33;;;19.70;65.90;20.00;101102.00;;;;5070642;28;20734;-43
2022/09/19 07:26:05;;;;;;;3.60;2.10;;;19.60;65.80;20.00;101099.00;;;;5072453;28;20174;-43
2022/09/19 07:28:31;;;;;;;4.67;2.00;;;19.70;66.00;20.00;101099.00;;;;5071082;28;20630;-43
2022/09/19 07:30:58;;;;;;;5.37;2.20;;;19.60;65.80;20.00;101109.00;;;;5070567;28;20181;-44
2022/09/19 07:33:24;;;;;;;3.73;2.10;;;19.70;66.00;20.10;101104.00;;;;5069897;28;20190;-43
2022/09/19 07:35:53;;;;;;;5.40;2.10;;;19.70;65.90;20.10;101118.00;;;;5069022;28;20223;-43
2022/09/19 07:38:20;;;;;;;6.07;2.17;;;19.70;65.80;20.10;101106.00;;;;5069221;28;20173;-43
2022/09/19 07:40:45;;;;;;;5.00;2.10;;;19.70;65.80;20.10;101107.00;;;;5068986;28;20186;-45
2022/09/19 07:43:16;;;;;;;3.60;2.03;;;19.70;65.80;20.10;101120.00;;;;5069182;28;20203;-43
2022/09/19 07:45:44;;;;;;;3.77;1.83;;;19.70;65.90;20.10;101107.00;;;;5069149;28;20200;-43
2022/09/19 07:48:10;;;;;;;3.73;1.80;;;19.70;65.80;20.20;101121.00;;;;5068919;28;20543;-43
2022/09/19 07:50:37;;;;;;;4.33;2.03;;;19.80;65.80;20.20;101123.00;;;;5069976;28;20169;-43
2022/09/19 07:53:04;;;;;;;3.50;2.03;;;19.80;65.80;20.20;101120.00;;;;5068673;28;20568;-42
2022/09/19 07:55:30;;;;;;;4.53;1.97;;;19.90;65.90;20.20;101117.00;;;;5068854;28;20162;-43
2022/09/19 07:57:57;;;;;;;4.27;2.00;;;19.80;65.70;20.30;101117.00;;;;5070121;28;20235;-44
2022/09/19 08:00:24;;;;;;;3.07;1.80;;;19.80;65.70;20.30;101128.00;;;;5068606;28;20174;-43
2022/09/19 08:02:57;;;;;;;2.83;1.90;;;19.80;65.80;20.30;101125.00;;;;5068911;28;20186;-43
2022/09/19 08:05:23;;;;;;;2.80;1.70;;;19.80;65.80;20.30;101134.00;;;;5068996;28;20577;-43
2022/09/19 08:07:49;;;;;;;4.37;2.13;;;19.80;65.80;20.30;101145.00;;;;5069484;28;20269;-44
2022/09/19 08:10:15;;;;;;;3.37;2.00;;;19.90;65.70;20.30;101141.00;;;;5068580;28;21003;-43
2022/09/19 08:12:45;;;;;;;2.57;1.93;;;19.90;65.60;20.40;101146.00;;;;5069431;28;20189;-43
2022/09/19 08:15:15;;;;;;;3.93;2.03;;;19.90;65.60;20.40;101150.00;;;;5069853;28;20174;-44
2022/09/19 08:18:13;;;;;;;2.80;1.80;;;19.90;65.70;20.40;101088.00;;;;5068034;28;20527;-43
2022/09/19 08:20:39;;;;;;;1.90;1.53;;;19.90;65.80;20.40;101156.00;;;;5060971;28;20760;-44
2022/09/19 08:23:16;;;;;;;2.33;1.60;;;19.90;65.80;20.40;101152.00;;;;5069616;28;20555;-44
2022/09/19 08:25:46;;;;;;;3.23;2.10;;;19.90;65.80;20.40;101147.00;;;;5069972;28;20165;-44
2022/09/19 08:28:13;;;;;;;3.80;1.90;;;19.90;65.80;20.40;101150.00;;;;5074164;28;20253;-43
2022/09/19 08:30:41;;;;;;;2.37;1.87;;;19.90;65.60;20.40;101153.00;;;;5086204;28;20177;-43
2022/09/19 08:33:08;;;;;;;2.27;1.60;;;19.90;65.50;20.40;101156.00;;;;5085417;28;20200;-43
2022/09/19 08:35:37;;;;;;;2.73;1.77;;;20.00;65.60;20.50;101148.00;;;;5068997;28;20256;-44
2022/09/19 08:38:04;;;;;;;3.57;1.80;;;20.00;65.60;20.40;101149.00;;;;5069429;28;20190;-43
2022/09/19 08:40:43;;;;;;;1.57;1.43;;;19.90;65.70;20.50;101155.00;;;;5068430;28;20168;-43
2022/09/19 08:43:51;;;;;;;2.87;1.67;;;19.90;65.70;20.50;101158.00;;;;5068449;28;20607;-43
2022/09/19 08:46:35;;;;;;;1.90;1.60;;;19.90;65.90;20.40;101092.00;;;;5068386;28;20166;-44
2022/09/19 08:49:13;;;;;;;2.13;1.67;;;19.90;65.90;20.50;101154.00;;;;5069521;28;20170;-44
2022/09/19 08:52:02;;;;;;;1.40;1.30;;;19.90;65.80;20.50;101161.00;;;;5069238;28;20193;-44
2022/09/19 08:54:30;;;;;;;1.70;1.60;;;20.00;65.80;20.50;101158.00;;;;5069502;28;20530;-44
2022/09/19 08:56:57;;;;;;;2.93;1.70;;;20.10;65.70;20.50;101167.00;;;;5068554;28;20201;-43
2022/09/19 08:59:24;;;;;;;2.10;1.63;;;20.00;65.60;20.50;101163.00;;;;5068029;28;20611;-44
2022/09/19 09:01:53;;;;;;;3.37;1.90;;;20.00;65.60;20.50;101174.00;;;;5067483;28;20182;-44
2022/09/19 09:04:30;;;;;;;1.87;1.67;;;20.00;65.60;20.60;101167.00;;;;5068939;28;20248;-43
2022/09/19 09:07:24;;;;;;;2.43;1.50;;;20.00;65.70;20.60;101157.00;;;;5067688;28;20203;-43
2022/09/19 09:10:34;;;;;;;2.97;1.60;;;20.00;65.70;20.60;101168.00;;;;5067964;28;20185;-43
2022/09/19 09:13:13;;;;;;;2.30;1.63;;;20.00;65.80;20.50;101175.00;;;;5049172;28;20215;-43
2022/09/19 09:16:07;;;;;;;2.60;1.53;;;20.00;65.80;20.50;101167.00;;;;5073173;28;20169;-43
2022/09/19 09:19:02;;;;;;;2.07;1.70;;;20.00;65.90;20.60;101183.00;;;;5072026;28;20777;-43
2022/09/19 09:21:46;;;;;;;2.07;1.40;;;20.00;65.90;20.60;101172.00;;;;5071821;28;20197;-43
2022/09/19 09:24:40;;;;;;;1.70;1.50;;;20.00;65.80;20.60;101180.00;;;;5072824;28;20193;-42
2022/09/19 09:27:12;;;;;;;1.83;1.60;;;20.00;65.60;20.60;101168.00;;;;5071420;28;20170;-45
2022/09/19 09:29:54;;;;;;;2.60;1.60;;;20.10;65.70;20.60;101182.00;;;;5071637;28;20158;-43
2022/09/19 09:32:34;;;;;;;2.07;1.60;;;20.00;65.60;20.60;101176.00;;;;5071356;28;20271;-43
2022/09/19 09:35:33;;;;;;;3.00;2.03;;;20.10;65.80;20.60;101175.00;;;;5071356;28;20611;-43
2022/09/19 09:38:34;;;;;;;2.83;1.80;;;20.00;65.70;20.60;101175.00;;;;5072408;28;20729;-44
2022/09/19 09:41:50;;;;;;;2.90;1.70;;;20.00;65.70;20.60;101169.00;;;;5054348;28;20184;-45
2022/09/19 09:44:43;;;;;;;1.70;1.57;;;20.00;65.80;20.60;101166.00;;;;5053705;28;20744;-44
2022/09/19 09:47:44;;;;;;;2.07;1.70;;;20.00;65.90;20.60;101175.00;;;;5072283;28;20207;-43
2022/09/19 09:50:31;;;;;;;1.97;1.60;;;20.00;65.90;20.60;101182.00;;;;5072852;28;20162;-44
2022/09/19 09:53:34;;;;;;;1.60;1.43;;;20.00;66.00;20.60;101175.00;;;;5073029;28;20212;-45
2022/09/19 09:56:48;;;;;;;2.30;1.67;;;20.00;65.80;20.60;101188.00;;;;5071044;28;20535;-43
2022/09/19 10:05:39;;;;;;;1.60;1.50;;;20.10;65.80;20.70;101121.00;;;;5073475;28;20157;-43
2022/09/19 10:08:29;;;;;;;1.93;1.50;;;20.10;65.80;20.70;101172.00;;;;5071425;28;20187;-43
2022/09/19 10:11:20;;;;;;;1.57;1.40;;;20.10;65.80;20.70;101185.00;;;;5072344;28;20270;-43
2022/09/19 10:13:57;;;;;;;1.47;1.37;;;20.10;65.90;20.70;101174.00;;;;5071778;28;20404;-43
2022/09/19 10:16:24;;;;;;;1.83;1.60;;;20.10;65.80;20.70;101191.00;;;;5071035;28;20678;-43
2022/09/19 10:18:54;;;;;;;2.00;1.60;;;20.10;65.90;20.70;101187.00;;;;5070514;28;20614;-42
2022/09/19 10:21:20;;;;;;;2.37;1.60;;;20.10;65.90;20.70;101181.00;;;;5071180;28;20177;-43
2022/09/19 10:23:46;;;;;;;1.60;1.50;;;20.10;65.90;20.70;101113.00;;;;5071648;28;20170;-43
2022/09/19 10:26:19;;;;;;;2.33;1.50;;;20.10;66.00;20.70;101185.00;;;;5070786;28;20244;-43
2022/09/19 10:28:53;;;;;;;1.80;1.50;;;20.00;66.00;20.70;101195.00;;;;5070722;28;20611;-44
2022/09/19 10:31:37;;;;;;;2.57;1.60;;;20.00;66.00;20.70;101189.00;;;;5070175;28;20149;-43
2022/09/19 10:34:06;;;;;;;1.90;1.57;;;20.10;66.30;20.70;101193.00;;;;5054297;28;20669;-43
2022/09/19 10:36:33;;;;;;;2.00;1.63;;;20.00;66.00;20.80;101188.00;;;;5070350;28;20189;-43
2022/09/19 10:39:03;;;;;;;1.67;1.47;;;20.10;66.10;20.80;101164.00;;;;5070114;28;20166;-43
2022/09/19 10:41:30;;;;;;;1.93;1.50;;;20.10;66.00;20.80;101166.00;;;;5070551;28;20195;-45
2022/09/19 10:44:01;;;;;;;1.50;1.40;;;20.10;65.90;20.80;101164.00;;;;5071479;28;20597;-43
2022/09/19 10:46:35;;;;;;;2.67;1.60;;;20.10;65.90;20.80;101155.00;;;;5071081;28;20174;-43
2022/09/19 10:49:05;;;;;;;5.10;1.80;;;20.10;65.90;20.80;101158.00;;;;5070209;28;20673;-43
2022/09/19 10:51:37;;;;;;;2.03;1.40;;;20.10;65.90;20.80;101078.00;;;;5070590;28;20176;-43
2022/09/19 10:54:11;;;;;;;3.07;1.70;;;20.10;66.00;20.80;101158.00;;;;5070854;28;20189;-42
2022/09/19 10:56:40;;;;;;;5.10;1.63;;;20.10;66.20;20.80;101159.00;;;;5070272;28;20189;-43
2022/09/19 10:59:13;;;;;;;2.90;1.73;;;20.20;68.00;20.90;101148.00;;;;5070987;28;20194;-42
2022/09/19 11:01:39;;;;;;;3.57;1.40;;;20.20;68.00;20.80;101142.00;;;;5070252;28;20190;-43
2022/09/19 11:04:11;;;;;;;3.20;1.47;;;20.20;68.20;20.90;101154.00;;;;5070042;28;20823;-43
2022/09/19 11:06:55;;;;;;;2.57;1.50;;;20.20;68.20;20.90;101153.00;;;;5071003;28;20209;-44
2022/09/19 11:09:35;;;;;;;3.97;1.60;;;20.20;68.40;20.80;101151.00;;;;5071836;28;20207;-44
2022/09/19 11:12:13;;;;;;;6.40;1.77;;;20.20;68.70;20.80;101148.00;;;;5070563;28;20186;-44
2022/09/19 11:14:40;;;;;;;6.90;1.70;;;20.20;68.80;20.90;101138.00;;;;5070247;28;20170;-44
2022/09/19 11:17:30;;;;;;;3.60;1.60;;;20.20;68.40;20.90;101143.00;;;;5070483;28;20208;-44
2022/09/19 11:20:32;;;;;;;4.23;1.73;;;20.20;68.20;20.90;101151.00;;;;5070804;28;20163;-43
2022/09/19 11:23:20;;;;;;;6.53;1.90;;;20.20;68.00;20.80;101146.00;;;;5070717;28;20189;-43
2022/09/19 11:26:19;;;;;;;3.83;1.60;;;20.10;67.90;20.90;101144.00;;;;5070867;28;20371;-44
2022/09/19 11:29:39;;;;;;;3.70;1.50;;;20.10;67.80;20.80;101161.00;;;;4995764;28;20183;-44